sensor_id;sensor_type;location;lat;lon;timestamp;temperature;humidity
23267;DHT22;11802;53.160;8.214;2022-12-19T00:01:00;0.70;99.90
23267;DHT22;11802;53.160;8.214;2022-12-19T00:03:26;0.70;99.90
23267;DHT22;11802;53.160;8.214;2022-12-19T00:05:52;0.70;99.90
23267;DHT22;11802;53.160;8.214;2022-12-19T00:08:17;0.70;99.90
23267;DHT22;11802;53.160;8.214;2022-12-19T00:10:43;0.80;99.90
23267;DHT22;11802;53.160;8.214;2022-12-19T00:13:09;0.80;99.90
23267;DHT22;11802;53.160;8.214;2022-12-19T00:15:35;0.80;99.90
23267;DHT22;11802;53.160;8.214;2022-12-19T00:18:01;0.80;99.90
23267;DHT22;11802;53.160;8.214;2022-12-19T00:20:26;0.80;99.90
23267;DHT22;11802;53.160;8.214;2022-12-19T00:22:52;0.80;99.90
23267;DHT22;11802;53.160;8.214;2022-12-19T00:25:17;0.80;99.90
23267;DHT22;11802;53.160;8.214;2022-12-19T00:27:43;0.80;99.90
23267;DHT22;11802;53.160;8.214;2022-12-19T00:30:09;0.80;99.90
23267;DHT22;11802;53.160;8.214;2022-12-19T00:32:36;0.80;99.90
23267;DHT22;11802;53.160;8.214;2022-12-19T00:35:01;0.90;99.90
23267;DHT22;11802;53.160;8.214;2022-12-19T00:37:27;0.90;99.90
23267;DHT22;11802;53.160;8.214;2022-12-19T00:39:52;0.90;99.90
23267;DHT22;11802;53.160;8.214;2022-12-19T00:42:18;0.90;99.90
23267;DHT22;11802;53.160;8.214;2022-12-19T00:44:43;0.90;99.90
23267;DHT22;11802;53.160;8.214;2022-12-19T00:47:09;0.90;99.90
23267;DHT22;11802;53.160;8.214;2022-12-19T00:49:34;0.90;99.90
23267;DHT22;11802;53.160;8.214;2022-12-19T00:52:00;0.90;99.90
23267;DHT22;11802;53.160;8.214;2022-12-19T00:54:25;0.90;99.90
23267;DHT22;11802;53.160;8.214;2022-12-19T00:56:51;0.90;99.90
23267;DHT22;11802;53.160;8.214;2022-12-19T00:59:16;0.90;99.90
23267;DHT22;11802;53.160;8.214;2022-12-19T01:01:42;0.90;99.90
23267;DHT22;11802;53.160;8.214;2022-12-19T01:04:11;0.90;99.90
23267;DHT22;11802;53.160;8.214;2022-12-19T01:06:38;1.00;99.90
23267;DHT22;11802;53.160;8.214;2022-12-19T01:09:04;0.90;99.90
23267;DHT22;11802;53.160;8.214;2022-12-19T01:11:32;0.90;99.90
23267;DHT22;11802;53.160;8.214;2022-12-19T01:14:16;0.90;99.90
23267;DHT22;11802;53.160;8.214;2022-12-19T01:16:42;0.90;99.90
23267;DHT22;11802;53.160;8.214;2022-12-19T01:19:10;0.90;99.90
23267;DHT22;11802;53.160;8.214;2022-12-19T01:21:36;0.90;99.90
23267;DHT22;11802;53.160;8.214;2022-12-19T01:24:02;0.90;99.90
23267;DHT22;11802;53.160;8.214;2022-12-19T01:26:28;0.90;99.90
23267;DHT22;11802;53.160;8.214;2022-12-19T01:28:54;0.90;99.90
23267;DHT22;11802;53.160;8.214;2022-12-19T01:31:20;0.90;99.90
23267;DHT22;11802;53.160;8.214;2022-12-19T01:33:45;0.90;99.90
23267;DHT22;11802;53.160;8.214;2022-12-19T01:36:11;0.90;99.90
23267;DHT22;11802;53.160;8.214;2022-12-19T01:38:36;1.00;99.90
23267;DHT22;11802;53.160;8.214;2022-12-19T01:41:03;1.00;99.90
23267;DHT22;11802;53.160;8.214;2022-12-19T01:43:32;1.00;99.90
23267;DHT22;11802;53.160;8.214;2022-12-19T01:46:16;1.00;99.90
23267;DHT22;11802;53.160;8.214;2022-12-19T01:48:43;1.00;99.90
23267;DHT22;11802;53.160;8.214;2022-12-19T01:51:14;1.00;99.90
23267;DHT22;11802;53.160;8.214;2022-12-19T01:53:49;1.00;99.90
23267;DHT22;11802;53.160;8.214;2022-12-19T01:56:21;1.00;99.90
23267;DHT22;11802;53.160;8.214;2022-12-19T01:58:49;1.10;99.90
23267;DHT22;11802;53.160;8.214;2022-12-19T02:01:16;1.10;99.90
23267;DHT22;11802;53.160;8.214;2022-12-19T02:03:43;1.10;99.90
23267;DHT22;11802;53.160;8.214;2022-12-19T02:06:10;1.10;99.90
23267;DHT22;11802;53.160;8.214;2022-12-19T02:08:36;1.10;99.90
23267;DHT22;11802;53.160;8.214;2022-12-19T02:11:05;1.10;99.90
23267;DHT22;11802;53.160;8.214;2022-12-19T02:13:31;1.10;99.90
23267;DHT22;11802;53.160;8.214;2022-12-19T02:18:48;1.10;99.90
23267;DHT22;11802;53.160;8.214;2022-12-19T02:24:48;1.10;99.90
23267;DHT22;11802;53.160;8.214;2022-12-19T02:27:44;1.10;99.90
23267;DHT22;11802;53.160;8.214;2022-12-19T02:36:19;1.10;99.90
23267;DHT22;11802;53.160;8.214;2022-12-19T02:39:17;1.10;99.90
23267;DHT22;11802;53.160;8.214;2022-12-19T02:41:55;1.20;99.90
23267;DHT22;11802;53.160;8.214;2022-12-19T02:44:26;1.20;99.90
23267;DHT22;11802;53.160;8.214;2022-12-19T02:46:53;1.20;99.90
23267;DHT22;11802;53.160;8.214;2022-12-19T02:49:20;1.20;99.90
23267;DHT22;11802;53.160;8.214;2022-12-19T02:51:45;1.20;99.90
23267;DHT22;11802;53.160;8.214;2022-12-19T02:54:11;1.20;99.90
23267;DHT22;11802;53.160;8.214;2022-12-19T02:57:28;1.30;99.90
23267;DHT22;11802;53.160;8.214;2022-12-19T02:59:45;1.30;99.90
23267;DHT22;11802;53.160;8.214;2022-12-19T03:05:06;1.40;99.90
23267;DHT22;11802;53.160;8.214;2022-12-19T03:07:47;1.40;99.90
23267;DHT22;11802;53.160;8.214;2022-12-19T03:10:36;1.40;99.90
23267;DHT22;11802;53.160;8.214;2022-12-19T03:13:18;1.50;99.90
23267;DHT22;11802;53.160;8.214;2022-12-19T03:15:46;1.50;99.90
23267;DHT22;11802;53.160;8.214;2022-12-19T03:18:12;1.50;99.90
23267;DHT22;11802;53.160;8.214;2022-12-19T03:23:37;1.60;99.90
23267;DHT22;11802;53.160;8.214;2022-12-19T03:26:07;1.60;99.90
23267;DHT22;11802;53.160;8.214;2022-12-19T03:31:16;1.70;99.90
23267;DHT22;11802;53.160;8.214;2022-12-19T03:33:44;1.70;99.90
23267;DHT22;11802;53.160;8.214;2022-12-19T03:36:16;1.70;99.90
23267;DHT22;11802;53.160;8.214;2022-12-19T03:38:44;1.70;99.90
23267;DHT22;11802;53.160;8.214;2022-12-19T03:41:11;1.80;99.90
23267;DHT22;11802;53.160;8.214;2022-12-19T03:43:39;1.80;99.90
23267;DHT22;11802;53.160;8.214;2022-12-19T03:46:20;1.80;99.90
23267;DHT22;11802;53.160;8.214;2022-12-19T03:48:48;1.90;99.90
23267;DHT22;11802;53.160;8.214;2022-12-19T03:51:25;1.90;99.90
23267;DHT22;11802;53.160;8.214;2022-12-19T03:54:14;1.90;99.90
23267;DHT22;11802;53.160;8.214;2022-12-19T03:56:42;1.90;99.90
23267;DHT22;11802;53.160;8.214;2022-12-19T03:59:32;2.00;99.90
23267;DHT22;11802;53.160;8.214;2022-12-19T04:02:00;2.00;99.90
23267;DHT22;11802;53.160;8.214;2022-12-19T04:04:27;2.00;99.90
23267;DHT22;11802;53.160;8.214;2022-12-19T04:06:54;2.10;99.90
23267;DHT22;11802;53.160;8.214;2022-12-19T04:09:21;2.10;99.90
23267;DHT22;11802;53.160;8.214;2022-12-19T04:11:51;2.10;99.90
23267;DHT22;11802;53.160;8.214;2022-12-19T04:14:29;2.10;99.90
23267;DHT22;11802;53.160;8.214;2022-12-19T04:20:20;2.10;99.90
23267;DHT22;11802;53.160;8.214;2022-12-19T04:22:38;2.10;99.90
23267;DHT22;11802;53.160;8.214;2022-12-19T04:25:09;2.10;99.90
23267;DHT22;11802;53.160;8.214;2022-12-19T04:27:37;2.10;99.90
23267;DHT22;11802;53.160;8.214;2022-12-19T04:30:05;2.10;99.90
23267;DHT22;11802;53.160;8.214;2022-12-19T04:32:33;2.10;99.90
23267;DHT22;11802;53.160;8.214;2022-12-19T04:35:00;2.10;99.90
23267;DHT22;11802;53.160;8.214;2022-12-19T04:37:27;2.10;99.90
23267;DHT22;11802;53.160;8.214;2022-12-19T04:39:53;2.10;99.90
23267;DHT22;11802;53.160;8.214;2022-12-19T04:42:18;2.10;99.90
23267;DHT22;11802;53.160;8.214;2022-12-19T04:44:44;2.10;99.90
23267;DHT22;11802;53.160;8.214;2022-12-19T04:47:09;2.10;99.90
23267;DHT22;11802;53.160;8.214;2022-12-19T04:49:35;2.10;99.90
23267;DHT22;11802;53.160;8.214;2022-12-19T04:52:00;2.10;99.90
23267;DHT22;11802;53.160;8.214;2022-12-19T04:54:26;2.10;99.90
23267;DHT22;11802;53.160;8.214;2022-12-19T04:56:52;2.20;99.90
23267;DHT22;11802;53.160;8.214;2022-12-19T04:59:17;2.20;99.90
23267;DHT22;11802;53.160;8.214;2022-12-19T05:01:43;2.20;99.90
23267;DHT22;11802;53.160;8.214;2022-12-19T05:04:09;2.20;99.90
23267;DHT22;11802;53.160;8.214;2022-12-19T05:06:34;2.20;99.90
23267;DHT22;11802;53.160;8.214;2022-12-19T05:09:00;2.20;99.90
23267;DHT22;11802;53.160;8.214;2022-12-19T05:11:25;2.20;99.90
23267;DHT22;11802;53.160;8.214;2022-12-19T05:13:51;2.20;99.90
23267;DHT22;11802;53.160;8.214;2022-12-19T05:16:16;2.20;99.90
23267;DHT22;11802;53.160;8.214;2022-12-19T05:18:43;2.20;99.90
23267;DHT22;11802;53.160;8.214;2022-12-19T05:21:09;2.20;99.90
23267;DHT22;11802;53.160;8.214;2022-12-19T05:23:35;2.20;99.90
23267;DHT22;11802;53.160;8.214;2022-12-19T05:26:02;2.20;99.90
23267;DHT22;11802;53.160;8.214;2022-12-19T05:28:31;2.20;99.90
23267;DHT22;11802;53.160;8.214;2022-12-19T05:31:08;2.30;99.90
23267;DHT22;11802;53.160;8.214;2022-12-19T05:33:34;2.30;99.90
23267;DHT22;11802;53.160;8.214;2022-12-19T05:36:00;2.30;99.90
23267;DHT22;11802;53.160;8.214;2022-12-19T05:38:27;2.30;99.90
23267;DHT22;11802;53.160;8.214;2022-12-19T05:40:52;2.30;99.90
23267;DHT22;11802;53.160;8.214;2022-12-19T05:43:18;2.30;99.90
23267;DHT22;11802;53.160;8.214;2022-12-19T05:45:43;2.30;99.90
23267;DHT22;11802;53.160;8.214;2022-12-19T05:48:09;2.40;99.90
23267;DHT22;11802;53.160;8.214;2022-12-19T05:50:34;2.40;99.90
23267;DHT22;11802;53.160;8.214;2022-12-19T05:53:00;2.40;99.90
23267;DHT22;11802;53.160;8.214;2022-12-19T05:55:26;2.40;99.90
23267;DHT22;11802;53.160;8.214;2022-12-19T05:57:51;2.40;99.90
23267;DHT22;11802;53.160;8.214;2022-12-19T06:00:17;2.40;99.90
23267;DHT22;11802;53.160;8.214;2022-12-19T06:02:42;2.40;99.90
23267;DHT22;11802;53.160;8.214;2022-12-19T06:05:08;2.50;99.90
23267;DHT22;11802;53.160;8.214;2022-12-19T06:07:34;2.50;99.90
23267;DHT22;11802;53.160;8.214;2022-12-19T06:09:59;2.50;99.90
23267;DHT22;11802;53.160;8.214;2022-12-19T06:12:25;2.50;99.90
23267;DHT22;11802;53.160;8.214;2022-12-19T06:14:50;2.50;99.90
23267;DHT22;11802;53.160;8.214;2022-12-19T06:17:16;2.50;99.90
23267;DHT22;11802;53.160;8.214;2022-12-19T06:19:43;2.60;99.90
23267;DHT22;11802;53.160;8.214;2022-12-19T06:22:09;2.60;99.90
23267;DHT22;11802;53.160;8.214;2022-12-19T06:24:34;2.60;99.90
23267;DHT22;11802;53.160;8.214;2022-12-19T06:27:00;2.60;99.90
23267;DHT22;11802;53.160;8.214;2022-12-19T06:29:25;2.60;99.90
23267;DHT22;11802;53.160;8.214;2022-12-19T06:31:51;2.60;99.90
23267;DHT22;11802;53.160;8.214;2022-12-19T06:34:16;2.70;99.90
23267;DHT22;11802;53.160;8.214;2022-12-19T06:36:42;2.60;99.90
23267;DHT22;11802;53.160;8.214;2022-12-19T06:39:11;2.70;99.90
23267;DHT22;11802;53.160;8.214;2022-12-19T06:41:37;2.60;99.90
23267;DHT22;11802;53.160;8.214;2022-12-19T06:44:21;2.60;99.90
23267;DHT22;11802;53.160;8.214;2022-12-19T06:46:46;2.70;99.90
23267;DHT22;11802;53.160;8.214;2022-12-19T06:49:12;2.70;99.90
23267;DHT22;11802;53.160;8.214;2022-12-19T06:51:37;2.70;99.90
23267;DHT22;11802;53.160;8.214;2022-12-19T06:54:03;2.70;99.90
23267;DHT22;11802;53.160;8.214;2022-12-19T06:56:36;2.70;99.90
23267;DHT22;11802;53.160;8.214;2022-12-19T06:59:03;2.70;99.90
23267;DHT22;11802;53.160;8.214;2022-12-19T07:04:46;2.80;99.90
23267;DHT22;11802;53.160;8.214;2022-12-19T07:07:12;2.90;99.90
23267;DHT22;11802;53.160;8.214;2022-12-19T07:09:38;2.80;99.90
23267;DHT22;11802;53.160;8.214;2022-12-19T07:12:05;2.90;99.90
23267;DHT22;11802;53.160;8.214;2022-12-19T07:14:30;2.90;99.90
23267;DHT22;11802;53.160;8.214;2022-12-19T07:16:58;2.90;99.90
23267;DHT22;11802;53.160;8.214;2022-12-19T07:19:24;2.90;99.90
23267;DHT22;11802;53.160;8.214;2022-12-19T07:21:50;2.90;99.90
23267;DHT22;11802;53.160;8.214;2022-12-19T07:24:15;2.90;99.90
23267;DHT22;11802;53.160;8.214;2022-12-19T07:26:42;2.90;99.90
23267;DHT22;11802;53.160;8.214;2022-12-19T07:29:09;2.90;99.90
23267;DHT22;11802;53.160;8.214;2022-12-19T07:31:35;2.90;99.90
23267;DHT22;11802;53.160;8.214;2022-12-19T07:34:01;3.00;99.90
23267;DHT22;11802;53.160;8.214;2022-12-19T07:36:26;3.00;99.90
23267;DHT22;11802;53.160;8.214;2022-12-19T07:38:52;3.00;99.90
23267;DHT22;11802;53.160;8.214;2022-12-19T07:41:17;3.00;99.90
23267;DHT22;11802;53.160;8.214;2022-12-19T07:43:43;3.10;99.90
23267;DHT22;11802;53.160;8.214;2022-12-19T07:46:10;3.10;99.90
23267;DHT22;11802;53.160;8.214;2022-12-19T07:48:35;3.20;99.90
23267;DHT22;11802;53.160;8.214;2022-12-19T07:51:02;3.20;99.90
23267;DHT22;11802;53.160;8.214;2022-12-19T07:53:29;3.20;99.90
23267;DHT22;11802;53.160;8.214;2022-12-19T07:55:54;3.20;99.90
23267;DHT22;11802;53.160;8.214;2022-12-19T07:58:20;3.30;99.90
23267;DHT22;11802;53.160;8.214;2022-12-19T08:00:53;3.30;99.90
23267;DHT22;11802;53.160;8.214;2022-12-19T08:03:18;3.30;99.90
23267;DHT22;11802;53.160;8.214;2022-12-19T08:05:44;3.30;99.90
23267;DHT22;11802;53.160;8.214;2022-12-19T08:08:09;3.30;99.90
23267;DHT22;11802;53.160;8.214;2022-12-19T08:10:35;3.40;99.90
23267;DHT22;11802;53.160;8.214;2022-12-19T08:13:01;3.40;99.90
23267;DHT22;11802;53.160;8.214;2022-12-19T08:15:26;3.50;99.90
23267;DHT22;11802;53.160;8.214;2022-12-19T08:17:53;3.50;99.90
23267;DHT22;11802;53.160;8.214;2022-12-19T08:20:18;3.50;99.90
23267;DHT22;11802;53.160;8.214;2022-12-19T08:22:44;3.50;99.90
23267;DHT22;11802;53.160;8.214;2022-12-19T08:25:10;3.60;99.90
23267;DHT22;11802;53.160;8.214;2022-12-19T08:27:36;3.60;99.90
23267;DHT22;11802;53.160;8.214;2022-12-19T08:30:02;3.60;99.90
23267;DHT22;11802;53.160;8.214;2022-12-19T08:32:28;3.60;99.90
23267;DHT22;11802;53.160;8.214;2022-12-19T08:34:54;3.60;99.90
23267;DHT22;11802;53.160;8.214;2022-12-19T08:37:21;3.70;99.90
23267;DHT22;11802;53.160;8.214;2022-12-19T08:39:47;3.70;99.90
23267;DHT22;11802;53.160;8.214;2022-12-19T08:42:12;3.70;99.90
23267;DHT22;11802;53.160;8.214;2022-12-19T08:44:38;3.80;99.90
23267;DHT22;11802;53.160;8.214;2022-12-19T08:47:04;3.90;99.90
23267;DHT22;11802;53.160;8.214;2022-12-19T08:49:29;3.90;99.90
23267;DHT22;11802;53.160;8.214;2022-12-19T08:51:55;3.90;99.90
23267;DHT22;11802;53.160;8.214;2022-12-19T08:54:20;3.90;99.90
23267;DHT22;11802;53.160;8.214;2022-12-19T08:56:46;4.00;99.90
23267;DHT22;11802;53.160;8.214;2022-12-19T08:59:11;4.00;99.90
23267;DHT22;11802;53.160;8.214;2022-12-19T09:01:37;4.00;99.90
23267;DHT22;11802;53.160;8.214;2022-12-19T09:04:02;4.10;99.90
23267;DHT22;11802;53.160;8.214;2022-12-19T09:06:30;4.10;99.90
23267;DHT22;11802;53.160;8.214;2022-12-19T09:08:55;4.20;99.90
23267;DHT22;11802;53.160;8.214;2022-12-19T09:11:21;4.20;99.90
23267;DHT22;11802;53.160;8.214;2022-12-19T09:13:47;4.30;99.90
23267;DHT22;11802;53.160;8.214;2022-12-19T09:16:20;4.30;99.90
23267;DHT22;11802;53.160;8.214;2022-12-19T09:18:51;4.40;99.90
23267;DHT22;11802;53.160;8.214;2022-12-19T09:21:18;4.40;99.90
23267;DHT22;11802;53.160;8.214;2022-12-19T09:23:52;4.50;99.90
23267;DHT22;11802;53.160;8.214;2022-12-19T09:26:19;4.40;99.90
23267;DHT22;11802;53.160;8.214;2022-12-19T09:28:45;4.50;99.90
23267;DHT22;11802;53.160;8.214;2022-12-19T09:31:14;4.60;99.90
23267;DHT22;11802;53.160;8.214;2022-12-19T09:33:40;4.60;99.90
23267;DHT22;11802;53.160;8.214;2022-12-19T09:36:07;4.70;99.90
23267;DHT22;11802;53.160;8.214;2022-12-19T09:38:35;4.70;99.90
23267;DHT22;11802;53.160;8.214;2022-12-19T09:43:43;4.90;99.90
23267;DHT22;11802;53.160;8.214;2022-12-19T09:48:42;5.00;99.90
23267;DHT22;11802;53.160;8.214;2022-12-19T09:51:13;5.00;99.90
23267;DHT22;11802;53.160;8.214;2022-12-19T09:56:38;5.00;99.90
23267;DHT22;11802;53.160;8.214;2022-12-19T09:59:52;5.10;99.90
23267;DHT22;11802;53.160;8.214;2022-12-19T10:05:08;5.10;99.90
23267;DHT22;11802;53.160;8.214;2022-12-19T10:07:36;5.20;99.90
23267;DHT22;11802;53.160;8.214;2022-12-19T10:10:02;5.20;99.90
23267;DHT22;11802;53.160;8.214;2022-12-19T10:15:07;5.30;99.90
23267;DHT22;11802;53.160;8.214;2022-12-19T10:20:34;5.40;99.90
23267;DHT22;11802;53.160;8.214;2022-12-19T10:23:45;5.40;99.90
23267;DHT22;11802;53.160;8.214;2022-12-19T10:26:19;5.50;99.90
23267;DHT22;11802;53.160;8.214;2022-12-19T10:29:00;5.50;99.90
23267;DHT22;11802;53.160;8.214;2022-12-19T10:34:18;5.60;99.90
23267;DHT22;11802;53.160;8.214;2022-12-19T10:36:51;5.60;99.90
23267;DHT22;11802;53.160;8.214;2022-12-19T10:42:18;5.60;99.90
23267;DHT22;11802;53.160;8.214;2022-12-19T10:44:47;5.70;99.90
23267;DHT22;11802;53.160;8.214;2022-12-19T10:47:15;5.70;99.90
23267;DHT22;11802;53.160;8.214;2022-12-19T10:49:41;5.70;99.90
23267;DHT22;11802;53.160;8.214;2022-12-19T10:52:08;5.70;99.90
23267;DHT22;11802;53.160;8.214;2022-12-19T10:57:17;5.80;99.90
23267;DHT22;11802;53.160;8.214;2022-12-19T11:02:46;5.90;99.90
23267;DHT22;11802;53.160;8.214;2022-12-19T11:05:26;5.90;99.90
23267;DHT22;11802;53.160;8.214;2022-12-19T11:11:08;6.00;99.90
23267;DHT22;11802;53.160;8.214;2022-12-19T11:13:42;6.00;99.90
23267;DHT22;11802;53.160;8.214;2022-12-19T11:16:11;6.00;99.90
23267;DHT22;11802;53.160;8.214;2022-12-19T11:18:40;6.10;99.90
23267;DHT22;11802;53.160;8.214;2022-12-19T11:21:21;6.10;99.90
23267;DHT22;11802;53.160;8.214;2022-12-19T11:26:45;6.20;99.90
23267;DHT22;11802;53.160;8.214;2022-12-19T11:32:03;6.30;99.90
23267;DHT22;11802;53.160;8.214;2022-12-19T11:34:31;6.30;99.90
23267;DHT22;11802;53.160;8.214;2022-12-19T11:37:17;6.40;99.90
23267;DHT22;11802;53.160;8.214;2022-12-19T11:40:30;6.40;99.90
23267;DHT22;11802;53.160;8.214;2022-12-19T11:42:59;6.40;99.90
23267;DHT22;11802;53.160;8.214;2022-12-19T11:45:37;6.50;99.90
23267;DHT22;11802;53.160;8.214;2022-12-19T11:48:12;6.50;99.90
23267;DHT22;11802;53.160;8.214;2022-12-19T11:51:05;6.60;99.90
23267;DHT22;11802;53.160;8.214;2022-12-19T11:56:22;6.70;99.90
23267;DHT22;11802;53.160;8.214;2022-12-19T11:58:52;6.70;99.90
23267;DHT22;11802;53.160;8.214;2022-12-19T12:01:38;6.70;99.90
23267;DHT22;11802;53.160;8.214;2022-12-19T12:06:51;6.80;99.90
23267;DHT22;11802;53.160;8.214;2022-12-19T12:09:44;6.80;99.90
23267;DHT22;11802;53.160;8.214;2022-12-19T12:15:26;6.80;99.90
23267;DHT22;11802;53.160;8.214;2022-12-19T12:20:51;7.00;99.90
23267;DHT22;11802;53.160;8.214;2022-12-19T12:29:03;7.00;99.90
23267;DHT22;11802;53.160;8.214;2022-12-19T12:39:55;7.10;99.90
23267;DHT22;11802;53.160;8.214;2022-12-19T12:45:21;7.20;99.90
23267;DHT22;11802;53.160;8.214;2022-12-19T12:47:50;7.10;99.90
23267;DHT22;11802;53.160;8.214;2022-12-19T12:50:17;7.20;99.90
23267;DHT22;11802;53.160;8.214;2022-12-19T12:52:49;7.20;99.90
23267;DHT22;11802;53.160;8.214;2022-12-19T12:55:30;7.20;99.90
23267;DHT22;11802;53.160;8.214;2022-12-19T12:57:57;7.20;99.90
23267;DHT22;11802;53.160;8.214;2022-12-19T13:06:03;7.20;99.90
23267;DHT22;11802;53.160;8.214;2022-12-19T13:11:04;7.30;99.90
23267;DHT22;11802;53.160;8.214;2022-12-19T13:13:54;7.20;99.90
23267;DHT22;11802;53.160;8.214;2022-12-19T13:19:33;7.20;99.90
23267;DHT22;11802;53.160;8.214;2022-12-19T13:24:50;7.30;99.90
23267;DHT22;11802;53.160;8.214;2022-12-19T13:32:31;7.40;99.90
23267;DHT22;11802;53.160;8.214;2022-12-19T13:35:01;7.30;99.90
23267;DHT22;11802;53.160;8.214;2022-12-19T13:37:45;7.40;99.90
23267;DHT22;11802;53.160;8.214;2022-12-19T13:40:33;7.40;99.90
23267;DHT22;11802;53.160;8.214;2022-12-19T13:43:17;7.30;99.90
23267;DHT22;11802;53.160;8.214;2022-12-19T13:46:03;7.40;99.90
23267;DHT22;11802;53.160;8.214;2022-12-19T13:48:50;7.40;99.90
23267;DHT22;11802;53.160;8.214;2022-12-19T13:51:16;7.40;99.90
23267;DHT22;11802;53.160;8.214;2022-12-19T13:53:42;7.40;99.90
23267;DHT22;11802;53.160;8.214;2022-12-19T13:56:12;7.40;99.90
23267;DHT22;11802;53.160;8.214;2022-12-19T13:58:54;7.40;99.90
23267;DHT22;11802;53.160;8.214;2022-12-19T14:01:29;7.50;99.90
23267;DHT22;11802;53.160;8.214;2022-12-19T14:03:57;7.50;99.90
23267;DHT22;11802;53.160;8.214;2022-12-19T14:06:26;7.50;99.90
23267;DHT22;11802;53.160;8.214;2022-12-19T14:09:04;7.60;99.90
23267;DHT22;11802;53.160;8.214;2022-12-19T14:11:30;7.60;99.90
23267;DHT22;11802;53.160;8.214;2022-12-19T14:14:01;7.60;99.90
23267;DHT22;11802;53.160;8.214;2022-12-19T14:16:46;7.60;99.90
23267;DHT22;11802;53.160;8.214;2022-12-19T14:19:41;7.60;99.90
23267;DHT22;11802;53.160;8.214;2022-12-19T14:22:19;7.60;99.90
23267;DHT22;11802;53.160;8.214;2022-12-19T14:24:56;7.60;99.90
23267;DHT22;11802;53.160;8.214;2022-12-19T14:27:44;7.70;99.90
23267;DHT22;11802;53.160;8.214;2022-12-19T14:30:20;7.60;99.90
23267;DHT22;11802;53.160;8.214;2022-12-19T14:32:48;7.60;99.90
23267;DHT22;11802;53.160;8.214;2022-12-19T14:35:17;7.60;99.90
23267;DHT22;11802;53.160;8.214;2022-12-19T14:37:45;7.70;99.90
23267;DHT22;11802;53.160;8.214;2022-12-19T14:40:31;7.60;99.90
23267;DHT22;11802;53.160;8.214;2022-12-19T14:43:21;7.60;99.90
23267;DHT22;11802;53.160;8.214;2022-12-19T14:48:53;7.70;99.90
23267;DHT22;11802;53.160;8.214;2022-12-19T14:51:30;7.70;99.90
23267;DHT22;11802;53.160;8.214;2022-12-19T14:56:53;7.70;99.90
23267;DHT22;11802;53.160;8.214;2022-12-19T15:02:00;7.80;99.90
23267;DHT22;11802;53.160;8.214;2022-12-19T15:04:35;7.80;99.90
23267;DHT22;11802;53.160;8.214;2022-12-19T15:07:12;7.80;99.90
23267;DHT22;11802;53.160;8.214;2022-12-19T15:12:29;7.70;99.90
23267;DHT22;11802;53.160;8.214;2022-12-19T15:15:24;7.80;99.90
23267;DHT22;11802;53.160;8.214;2022-12-19T15:17:55;7.70;99.90
23267;DHT22;11802;53.160;8.214;2022-12-19T15:20:20;7.80;99.90
23267;DHT22;11802;53.160;8.214;2022-12-19T15:22:46;7.80;99.90
23267;DHT22;11802;53.160;8.214;2022-12-19T15:25:16;7.80;99.90
23267;DHT22;11802;53.160;8.214;2022-12-19T15:27:43;7.80;99.90
23267;DHT22;11802;53.160;8.214;2022-12-19T15:30:16;7.80;99.90
23267;DHT22;11802;53.160;8.214;2022-12-19T15:32:43;7.70;99.90
23267;DHT22;11802;53.160;8.214;2022-12-19T15:35:11;7.70;99.90
23267;DHT22;11802;53.160;8.214;2022-12-19T15:37:37;7.80;99.90
23267;DHT22;11802;53.160;8.214;2022-12-19T15:40:03;7.80;99.90
23267;DHT22;11802;53.160;8.214;2022-12-19T15:42:28;7.70;99.90
23267;DHT22;11802;53.160;8.214;2022-12-19T15:44:54;7.70;99.90
23267;DHT22;11802;53.160;8.214;2022-12-19T15:47:24;7.80;99.90
23267;DHT22;11802;53.160;8.214;2022-12-19T15:49:52;7.80;99.90
23267;DHT22;11802;53.160;8.214;2022-12-19T15:52:19;7.80;99.90
23267;DHT22;11802;53.160;8.214;2022-12-19T15:54:45;7.80;99.90
23267;DHT22;11802;53.160;8.214;2022-12-19T15:57:23;7.80;99.90
23267;DHT22;11802;53.160;8.214;2022-12-19T15:59:51;7.80;99.90
23267;DHT22;11802;53.160;8.214;2022-12-19T16:02:21;7.80;99.90
23267;DHT22;11802;53.160;8.214;2022-12-19T16:04:49;7.80;99.90
23267;DHT22;11802;53.160;8.214;2022-12-19T16:07:22;7.80;99.90
23267;DHT22;11802;53.160;8.214;2022-12-19T16:09:48;7.80;99.90
23267;DHT22;11802;53.160;8.214;2022-12-19T16:12:36;7.80;99.90
23267;DHT22;11802;53.160;8.214;2022-12-19T16:15:03;7.80;99.90
23267;DHT22;11802;53.160;8.214;2022-12-19T16:17:31;7.80;99.90
23267;DHT22;11802;53.160;8.214;2022-12-19T16:19:57;7.80;99.90
23267;DHT22;11802;53.160;8.214;2022-12-19T16:22:26;7.90;99.90
23267;DHT22;11802;53.160;8.214;2022-12-19T16:24:52;7.80;99.90
23267;DHT22;11802;53.160;8.214;2022-12-19T16:27:22;7.80;99.90
23267;DHT22;11802;53.160;8.214;2022-12-19T16:29:48;7.80;99.90
23267;DHT22;11802;53.160;8.214;2022-12-19T16:32:14;7.80;99.90
23267;DHT22;11802;53.160;8.214;2022-12-19T16:34:40;7.80;99.90
23267;DHT22;11802;53.160;8.214;2022-12-19T16:37:06;7.80;99.90
23267;DHT22;11802;53.160;8.214;2022-12-19T16:39:31;7.80;99.90
23267;DHT22;11802;53.160;8.214;2022-12-19T16:41:57;7.80;99.90
23267;DHT22;11802;53.160;8.214;2022-12-19T16:44:23;7.80;99.90
23267;DHT22;11802;53.160;8.214;2022-12-19T16:46:49;7.80;99.90
23267;DHT22;11802;53.160;8.214;2022-12-19T16:49:17;7.80;99.90
23267;DHT22;11802;53.160;8.214;2022-12-19T16:51:44;7.80;99.90
23267;DHT22;11802;53.160;8.214;2022-12-19T16:54:13;7.80;99.90
23267;DHT22;11802;53.160;8.214;2022-12-19T16:56:51;7.80;99.90
23267;DHT22;11802;53.160;8.214;2022-12-19T16:59:32;7.80;99.90
23267;DHT22;11802;53.160;8.214;2022-12-19T17:02:00;7.80;99.90
23267;DHT22;11802;53.160;8.214;2022-12-19T17:04:26;7.70;99.90
23267;DHT22;11802;53.160;8.214;2022-12-19T17:06:53;7.80;99.90
23267;DHT22;11802;53.160;8.214;2022-12-19T17:09:21;7.70;99.90
23267;DHT22;11802;53.160;8.214;2022-12-19T17:11:50;7.70;99.90
23267;DHT22;11802;53.160;8.214;2022-12-19T17:14:22;7.70;99.90
23267;DHT22;11802;53.160;8.214;2022-12-19T17:16:51;7.70;99.90
23267;DHT22;11802;53.160;8.214;2022-12-19T17:19:54;7.80;99.90
23267;DHT22;11802;53.160;8.214;2022-12-19T17:22:14;7.70;99.90
23267;DHT22;11802;53.160;8.214;2022-12-19T17:24:40;7.70;99.90
23267;DHT22;11802;53.160;8.214;2022-12-19T17:27:06;7.70;99.90
23267;DHT22;11802;53.160;8.214;2022-12-19T17:29:31;7.80;99.90
23267;DHT22;11802;53.160;8.214;2022-12-19T17:31:57;7.70;99.90
23267;DHT22;11802;53.160;8.214;2022-12-19T17:34:29;7.70;99.90
23267;DHT22;11802;53.160;8.214;2022-12-19T17:36:56;7.80;99.90
23267;DHT22;11802;53.160;8.214;2022-12-19T17:39:27;7.80;99.90
23267;DHT22;11802;53.160;8.214;2022-12-19T17:41:54;7.80;99.90
23267;DHT22;11802;53.160;8.214;2022-12-19T17:44:22;7.80;99.90
23267;DHT22;11802;53.160;8.214;2022-12-19T17:46:47;7.70;99.90
23267;DHT22;11802;53.160;8.214;2022-12-19T17:49:25;7.80;99.90
23267;DHT22;11802;53.160;8.214;2022-12-19T17:51:51;7.80;99.90
23267;DHT22;11802;53.160;8.214;2022-12-19T17:54:19;7.80;99.90
23267;DHT22;11802;53.160;8.214;2022-12-19T17:56:44;7.80;99.90
23267;DHT22;11802;53.160;8.214;2022-12-19T17:59:10;7.80;99.90
23267;DHT22;11802;53.160;8.214;2022-12-19T18:01:36;7.80;99.90
23267;DHT22;11802;53.160;8.214;2022-12-19T18:04:02;7.80;99.90